Time;durP1;ratioP1;P1;durP2;ratioP2;P2;SDS_P1;SDS_P2;PMS_P1;PMS_P2;Temp;Humidity;BMP_temperature;BMP_pressure;BME280_temperature;BME280_humidity;BME280_pressure;Samples;Min_cycle;Max_cycle;Signal;HPM_P1;HPM_P2
2023/09/17 04:01:21;;;;;;;4.63;3.07;;;14.40;97.30;;;;;;5616289;23;21277;-86
2023/09/17 04:03:47;;;;;;;3.77;3.57;;;14.40;97.30;;;;;;4986117;28;20443;-86
2023/09/17 04:06:12;;;;;;;3.67;3.47;;;14.40;97.30;;;;;;4972631;28;20265;-86
2023/09/17 04:08:37;;;;;;;2.90;2.70;;;14.30;97.30;;;;;;4972900;28;20224;-86
2023/09/17 04:11:04;;;;;;;9.80;3.63;;;14.30;97.30;;;;;;4971388;28;20214;-86
2023/09/17 04:13:30;;;;;;;3.67;3.47;;;14.30;97.30;;;;;;4963472;28;20179;-86
2023/09/17 04:15:56;;;;;;;6.30;3.47;;;14.20;97.30;;;;;;4965897;28;20950;-85
2023/09/17 04:18:22;;;;;;;6.10;2.17;;;14.20;97.30;;;;;;4970135;28;20509;-85
2023/09/17 04:20:50;;;;;;;3.27;3.00;;;14.20;97.30;;;;;;4973181;28;20249;-85
2023/09/17 04:23:16;;;;;;;4.90;4.10;;;14.20;97.30;;;;;;4973462;28;20476;-85
2023/09/17 04:25:44;;;;;;;4.30;3.67;;;14.20;97.30;;;;;;4986426;28;20423;-86
2023/09/17 04:28:12;;;;;;;7.53;3.07;;;14.20;97.30;;;;;;4968186;28;20186;-86
2023/09/17 04:30:38;;;;;;;4.50;2.50;;;14.20;97.30;;;;;;4989026;28;20446;-85
2023/09/17 04:33:04;;;;;;;4.53;2.03;;;14.20;97.30;;;;;;4971150;28;20426;-86
2023/09/17 04:35:29;;;;;;;5.70;3.47;;;14.20;97.30;;;;;;4970728;28;20179;-85
2023/09/17 04:37:55;;;;;;;9.63;4.57;;;14.20;97.30;;;;;;4965066;28;20561;-85
2023/09/17 04:40:25;;;;;;;7.83;4.67;;;14.20;97.30;;;;;;4982140;28;20654;-85
2023/09/17 04:42:52;;;;;;;5.90;3.30;;;14.10;97.30;;;;;;4970465;28;20178;-85
2023/09/17 04:45:32;;;;;;;2.93;2.73;;;14.10;97.30;;;;;;4981868;28;20929;-85
2023/09/17 04:47:58;;;;;;;4.80;3.10;;;14.10;97.30;;;;;;4966021;28;20809;-85
2023/09/17 04:50:23;;;;;;;3.30;2.73;;;14.10;97.30;;;;;;5022499;23;20589;-62
2023/09/17 04:52:49;;;;;;;9.60;3.23;;;14.20;97.30;;;;;;5028834;28;20649;-62
2023/09/17 04:55:14;;;;;;;6.23;3.63;;;14.10;97.30;;;;;;5028363;28;20207;-62
2023/09/17 04:57:40;;;;;;;5.47;3.53;;;14.20;97.30;;;;;;5026506;28;20286;-62
2023/09/17 05:00:10;;;;;;;3.83;3.53;;;14.20;97.30;;;;;;5023464;28;20645;-62
2023/09/17 05:02:38;;;;;;;2.80;2.60;;;14.20;97.30;;;;;;5024049;28;20200;-62
2023/09/17 05:05:07;;;;;;;4.73;3.53;;;14.20;97.30;;;;;;5029183;28;20502;-63
2023/09/17 05:07:32;;;;;;;5.63;3.67;;;14.20;97.30;;;;;;5012330;28;20843;-62
2023/09/17 05:09:58;;;;;;;1.70;1.60;;;14.20;97.30;;;;;;5016165;28;20420;-62
2023/09/17 05:12:24;;;;;;;4.20;3.10;;;14.20;97.30;;;;;;5026330;28;20743;-62
2023/09/17 05:14:49;;;;;;;3.77;3.17;;;14.30;97.30;;;;;;5019725;28;20556;-62
2023/09/17 05:17:15;;;;;;;5.90;3.30;;;14.30;97.30;;;;;;5009880;28;20548;-62
2023/09/17 05:19:41;;;;;;;2.83;2.30;;;14.30;97.30;;;;;;5023111;28;20644;-62
2023/09/17 05:22:06;;;;;;;9.40;4.47;;;14.30;97.30;;;;;;5020558;28;20448;-62
2023/09/17 05:24:32;;;;;;;2.30;2.07;;;14.40;97.30;;;;;;5020762;28;20185;-62
2023/09/17 05:26:57;;;;;;;2.53;2.00;;;14.40;97.30;;;;;;5019772;28;20190;-62
2023/09/17 05:29:23;;;;;;;4.77;2.73;;;14.50;97.30;;;;;;5018217;28;20655;-62
2023/09/17 05:31:48;;;;;;;3.80;3.60;;;14.50;97.30;;;;;;5020112;28;20220;-62
2023/09/17 05:34:14;;;;;;;6.27;5.97;;;14.60;97.30;;;;;;5016029;28;20181;-62
2023/09/17 05:36:40;;;;;;;6.87;3.40;;;14.60;97.30;;;;;;5018898;28;20207;-62
2023/09/17 05:39:06;;;;;;;7.23;3.97;;;14.70;97.30;;;;;;5018722;28;20185;-62
2023/09/17 05:41:32;;;;;;;2.80;2.60;;;14.70;97.30;;;;;;5019058;28;20200;-62
2023/09/17 05:43:57;;;;;;;4.30;3.47;;;14.80;97.30;;;;;;5019133;28;20447;-63
2023/09/17 05:46:23;;;;;;;2.90;2.33;;;14.90;97.30;;;;;;5023240;28;20279;-62
2023/09/17 05:48:48;;;;;;;10.30;4.50;;;15.00;97.30;;;;;;5019764;28;20177;-62
2023/09/17 05:51:14;;;;;;;7.23;4.47;;;15.00;97.30;;;;;;5022003;28;20316;-62
2023/09/17 05:53:39;;;;;;;4.03;3.83;;;15.10;97.30;;;;;;5020717;28;20212;-62
2023/09/17 05:56:07;;;;;;;9.10;7.23;;;15.20;97.30;;;;;;5023009;28;20188;-62
2023/09/17 05:58:33;;;;;;;3.43;2.53;;;15.30;97.30;;;;;;5019760;28;20624;-62
2023/09/17 06:00:58;;;;;;;5.23;3.60;;;15.40;97.30;;;;;;5024398;28;20468;-61
2023/09/17 06:03:24;;;;;;;2.90;2.70;;;15.40;97.30;;;;;;5030242;28;20180;-61
2023/09/17 06:05:49;;;;;;;4.30;3.07;;;15.50;97.30;;;;;;5026809;28;20184;-61
2023/09/17 06:08:15;;;;;;;4.20;2.87;;;15.60;97.30;;;;;;5022404;28;20180;-61
2023/09/17 06:10:41;;;;;;;9.07;3.70;;;15.70;97.30;;;;;;5016374;28;20220;-61
2023/09/17 06:13:07;;;;;;;9.90;3.30;;;15.70;97.30;;;;;;5019806;28;20209;-61
2023/09/17 06:15:32;;;;;;;4.00;3.70;;;15.80;97.30;;;;;;5018224;28;20208;-61
2023/09/17 06:17:58;;;;;;;8.63;3.20;;;15.90;97.30;;;;;;5025579;28;20455;-61
2023/09/17 06:20:23;;;;;;;5.80;3.60;;;16.00;97.30;;;;;;5006677;28;20208;-61
2023/09/17 06:22:49;;;;;;;3.10;2.80;;;16.10;97.30;;;;;;5017217;28;20180;-61
2023/09/17 06:25:15;;;;;;;4.23;2.57;;;16.20;97.30;;;;;;5006964;28;20272;-60
2023/09/17 06:27:41;;;;;;;6.73;3.03;;;16.30;97.30;;;;;;5014769;28;20239;-60
2023/09/17 06:30:07;;;;;;;2.40;2.20;;;16.30;97.30;;;;;;5029171;28;20478;-60
2023/09/17 06:32:33;;;;;;;7.47;3.30;;;16.40;97.30;;;;;;5024486;28;20714;-60
2023/09/17 06:34:58;;;;;;;3.00;2.80;;;16.50;97.30;;;;;;5025192;28;20411;-60
2023/09/17 06:37:24;;;;;;;7.10;2.53;;;16.60;97.30;;;;;;5029165;28;20230;-60
2023/09/17 06:39:50;;;;;;;3.17;2.67;;;16.70;97.30;;;;;;5020316;28;20213;-60
2023/09/17 06:42:15;;;;;;;4.10;3.07;;;16.80;97.30;;;;;;5020977;28;20710;-60
2023/09/17 06:44:41;;;;;;;4.53;3.20;;;16.90;97.30;;;;;;5020510;28;20656;-59
2023/09/17 06:47:06;;;;;;;3.33;3.00;;;16.90;97.30;;;;;;5027908;28;20616;-60
2023/09/17 06:49:33;;;;;;;1.73;1.67;;;17.00;97.30;;;;;;5016246;28;20217;-59
2023/09/17 06:51:59;;;;;;;6.30;2.40;;;17.10;97.30;;;;;;5021721;28;20292;-60
2023/09/17 06:54:24;;;;;;;4.47;2.40;;;17.20;97.30;;;;;;5026246;28;20498;-60
2023/09/17 06:56:51;;;;;;;8.20;2.37;;;17.20;97.30;;;;;;5021724;28;21123;-59
2023/09/17 06:59:17;;;;;;;3.93;3.10;;;17.30;97.30;;;;;;5023305;28;20206;-60
2023/09/17 07:01:45;;;;;;;2.00;1.90;;;17.40;97.30;;;;;;5021429;28;20435;-60
2023/09/17 07:04:11;;;;;;;4.20;2.77;;;17.40;97.30;;;;;;5020716;28;20428;-60
2023/09/17 07:06:36;;;;;;;3.23;2.67;;;17.50;97.30;;;;;;5024807;28;20422;-60
2023/09/17 07:09:02;;;;;;;2.50;2.30;;;17.60;97.30;;;;;;5026445;28;20652;-61
2023/09/17 07:11:29;;;;;;;3.57;2.60;;;17.70;97.30;;;;;;5017702;28;20205;-61
2023/09/17 07:13:55;;;;;;;3.13;2.97;;;17.70;97.30;;;;;;5018068;28;20408;-61
2023/09/17 07:16:23;;;;;;;7.57;2.67;;;17.80;97.30;;;;;;5017606;28;20173;-61
2023/09/17 07:18:49;;;;;;;4.50;2.70;;;17.80;97.30;;;;;;5018215;28;20455;-61
2023/09/17 07:21:15;;;;;;;4.00;2.43;;;17.90;97.30;;;;;;5016132;28;20976;-61
2023/09/17 07:23:42;;;;;;;2.73;1.90;;;18.00;97.30;;;;;;5020629;28;20466;-61
2023/09/17 07:26:09;;;;;;;9.83;2.40;;;18.10;97.30;;;;;;5025708;28;20407;-62
2023/09/17 07:28:34;;;;;;;3.50;1.60;;;18.20;97.30;;;;;;5019368;28;20434;-61
2023/09/17 07:31:00;;;;;;;4.57;2.40;;;18.30;97.30;;;;;;5026133;28;20467;-60
2023/09/17 07:33:26;;;;;;;6.90;2.93;;;18.40;97.30;;;;;;5022456;28;20168;-61
2023/09/17 07:35:52;;;;;;;4.63;3.30;;;18.50;97.30;;;;;;5020764;28;21073;-61
2023/09/17 07:38:18;;;;;;;7.50;4.40;;;18.60;97.30;;;;;;5019631;28;20169;-61
2023/09/17 07:40:44;;;;;;;2.93;1.97;;;18.80;97.30;;;;;;5023306;28;20454;-60
2023/09/17 07:43:10;;;;;;;2.23;2.10;;;18.80;97.30;;;;;;5021336;28;20562;-61
2023/09/17 07:45:36;;;;;;;2.50;2.40;;;18.90;97.30;;;;;;5025108;28;20411;-60
2023/09/17 07:48:03;;;;;;;3.77;3.67;;;18.90;97.30;;;;;;5028145;28;20415;-61
2023/09/17 07:50:29;;;;;;;5.70;2.27;;;19.00;97.30;;;;;;5019535;28;20228;-60
2023/09/17 07:52:54;;;;;;;1.97;1.57;;;19.10;97.30;;;;;;5018481;28;20429;-60
2023/09/17 07:55:20;;;;;;;2.20;2.00;;;19.10;97.30;;;;;;5024764;28;20551;-61
2023/09/17 07:57:46;;;;;;;1.87;1.77;;;19.20;97.30;;;;;;5026082;28;20740;-61
2023/09/17 08:00:15;;;;;;;1.70;1.63;;;19.20;97.30;;;;;;5021843;28;20187;-61
2023/09/17 08:02:42;;;;;;;4.77;3.23;;;19.30;97.30;;;;;;5021895;28;20187;-61
2023/09/17 08:05:08;;;;;;;1.70;1.60;;;19.40;97.30;;;;;;5027681;28;20412;-61
2023/09/17 08:07:34;;;;;;;3.53;2.30;;;19.50;97.30;;;;;;5027425;28;20424;-61
2023/09/17 08:10:00;;;;;;;2.20;1.97;;;19.60;97.30;;;;;;5026856;28;20169;-61
2023/09/17 08:12:25;;;;;;;3.60;2.80;;;19.70;97.30;;;;;;5024159;28;20500;-62
2023/09/17 08:14:53;;;;;;;2.27;2.10;;;19.80;97.30;;;;;;5026497;28;20188;-61
2023/09/17 08:17:18;;;;;;;2.40;2.20;;;19.90;97.30;;;;;;5024427;28;20226;-61
2023/09/17 08:19:44;;;;;;;4.07;2.53;;;20.00;97.30;;;;;;5026813;28;20403;-63
2023/09/17 08:22:09;;;;;;;2.97;1.83;;;20.10;97.30;;;;;;5029865;28;20689;-61
2023/09/17 08:24:35;;;;;;;1.60;1.50;;;20.20;97.30;;;;;;5028830;28;20188;-61
2023/09/17 08:27:00;;;;;;;1.77;1.67;;;20.30;97.30;;;;;;5026641;28;20180;-62
2023/09/17 08:29:26;;;;;;;5.23;3.50;;;20.30;97.30;;;;;;5030137;28;20695;-61
2023/09/17 08:31:51;;;;;;;1.80;1.57;;;20.40;97.30;;;;;;5028643;28;20212;-61
2023/09/17 08:34:17;;;;;;;4.63;2.13;;;20.40;97.30;;;;;;5022113;28;20173;-62
2023/09/17 08:36:44;;;;;;;4.20;2.90;;;20.50;97.30;;;;;;5028007;28;20710;-61
2023/09/17 08:39:11;;;;;;;3.20;2.10;;;20.50;97.30;;;;;;5030879;28;20541;-61
2023/09/17 08:41:38;;;;;;;3.10;2.47;;;20.60;97.30;;;;;;5030063;28;20476;-61
2023/09/17 08:44:05;;;;;;;2.83;2.27;;;20.60;97.30;;;;;;5024957;28;20428;-61
2023/09/17 08:46:31;;;;;;;3.10;2.90;;;20.60;97.30;;;;;;5030053;28;20415;-61
2023/09/17 08:48:58;;;;;;;3.00;1.97;;;20.60;97.30;;;;;;5029541;28;20441;-61
2023/09/17 08:51:25;;;;;;;3.00;2.03;;;20.70;97.30;;;;;;5026415;28;20471;-61
2023/09/17 08:53:57;;;;;;;4.43;3.53;;;20.70;97.30;;;;;;5027128;28;21026;-61
2023/09/17 08:56:24;;;;;;;2.33;1.83;;;20.70;97.30;;;;;;5021734;28;20427;-62
2023/09/17 08:58:58;;;;;;;2.90;1.97;;;20.70;97.30;;;;;;5026912;28;20419;-61
2023/09/17 09:01:27;;;;;;;4.83;2.23;;;20.80;97.30;;;;;;5018455;28;20459;-61
2023/09/17 09:03:54;;;;;;;2.30;1.80;;;20.80;97.30;;;;;;5028069;28;20513;-62
2023/09/17 09:06:22;;;;;;;3.40;3.13;;;20.80;97.30;;;;;;5028421;28;20419;-60
2023/09/17 09:08:49;;;;;;;3.40;1.73;;;20.80;97.30;;;;;;5028673;28;20430;-60
2023/09/17 09:11:15;;;;;;;1.83;1.57;;;20.90;97.30;;;;;;5026573;28;20471;-60
2023/09/17 09:13:42;;;;;;;2.83;1.67;;;20.90;97.30;;;;;;5029646;28;20477;-63
2023/09/17 09:16:07;;;;;;;3.90;2.40;;;20.90;97.30;;;;;;5029255;28;20426;-61
2023/09/17 09:18:34;;;;;;;2.53;2.30;;;20.90;97.30;;;;;;5030057;28;20498;-62
2023/09/17 09:21:00;;;;;;;2.30;2.10;;;21.00;97.30;;;;;;5027567;28;20485;-62
2023/09/17 09:23:26;;;;;;;1.70;1.60;;;21.00;97.30;;;;;;5025332;28;20469;-61
2023/09/17 09:25:52;;;;;;;1.67;1.57;;;21.00;97.30;;;;;;5027081;28;20427;-61
2023/09/17 09:28:17;;;;;;;3.33;3.13;;;21.10;97.30;;;;;;5028130;28;20443;-62
2023/09/17 09:30:43;;;;;;;4.17;1.80;;;21.10;97.30;;;;;;5016347;28;20708;-62
2023/09/17 09:33:09;;;;;;;7.73;3.97;;;21.20;97.30;;;;;;5025979;28;20854;-62
2023/09/17 09:35:35;;;;;;;6.13;2.70;;;21.20;97.30;;;;;;5027242;28;20180;-62
2023/09/17 09:38:01;;;;;;;3.50;1.50;;;21.30;97.30;;;;;;5023953;28;20188;-62
2023/09/17 09:40:28;;;;;;;3.37;2.50;;;21.40;97.30;;;;;;5026601;28;20200;-61
2023/09/17 09:42:54;;;;;;;4.53;2.27;;;21.50;97.30;;;;;;5026015;28;20430;-61
2023/09/17 09:45:19;;;;;;;2.77;1.93;;;21.60;97.30;;;;;;5019194;28;20411;-61
2023/09/17 09:47:49;;;;;;;1.13;1.03;;;21.60;97.30;;;;;;5028393;28;20734;-61
2023/09/17 09:50:21;;;;;;;2.90;1.67;;;21.70;97.30;;;;;;5027678;28;20315;-61
2023/09/17 09:52:48;;;;;;;3.13;2.00;;;21.80;97.30;;;;;;5024748;28;20434;-61
2023/09/17 09:55:13;;;;;;;6.97;2.77;;;21.90;97.30;;;;;;5026775;28;20492;-61
2023/09/17 09:57:40;;;;;;;3.17;2.13;;;22.00;97.30;;;;;;5027992;28;20431;-61
2023/09/17 10:00:14;;;;;;;1.70;1.60;;;22.20;97.30;;;;;;5025884;28;20662;-61
2023/09/17 10:02:40;;;;;;;2.30;2.03;;;22.30;97.30;;;;;;5023863;28;20434;-61
2023/09/17 10:05:12;;;;;;;4.47;3.33;;;22.40;97.30;;;;;;5022012;28;20523;-59
2023/09/17 10:07:39;;;;;;;3.43;1.63;;;22.60;97.30;;;;;;5027519;28;21056;-61
2023/09/17 10:10:05;;;;;;;3.70;3.37;;;22.80;97.30;;;;;;5025332;28;20423;-61
2023/09/17 10:12:31;;;;;;;3.43;1.70;;;23.00;97.30;;;;;;5024486;28;20431;-61
2023/09/17 10:14:57;;;;;;;2.30;1.77;;;23.10;97.30;;;;;;5021568;28;20919;-61
2023/09/17 10:17:23;;;;;;;2.60;1.70;;;23.30;97.30;;;;;;5021297;28;20181;-61
2023/09/17 10:19:50;;;;;;;3.83;2.10;;;23.40;97.30;;;;;;5023616;28;20176;-62
2023/09/17 10:22:18;;;;;;;2.03;1.90;;;23.60;97.30;;;;;;5020839;28;20818;-61
2023/09/17 10:24:44;;;;;;;2.20;1.33;;;23.70;97.30;;;;;;5019040;28;21050;-61
2023/09/17 10:27:13;;;;;;;2.80;1.47;;;23.80;97.30;;;;;;5024426;28;20431;-61
2023/09/17 10:29:40;;;;;;;1.87;1.77;;;24.00;97.30;;;;;;5028783;28;20338;-61
2023/09/17 10:32:09;;;;;;;1.33;1.23;;;24.10;97.30;;;;;;5027438;28;20474;-61
2023/09/17 10:34:35;;;;;;;2.73;1.60;;;24.30;96.60;;;;;;5029186;28;20434;-62
2023/09/17 10:37:04;;;;;;;1.80;1.50;;;24.40;96.20;;;;;;5026804;28;20771;-61
2023/09/17 10:39:33;;;;;;;2.57;1.60;;;24.50;96.10;;;;;;5027545;28;20411;-61
2023/09/17 10:42:04;;;;;;;2.10;1.47;;;24.70;95.70;;;;;;5027526;28;20560;-61
2023/09/17 10:44:30;;;;;;;1.37;1.27;;;24.90;95.80;;;;;;5028296;28;20419;-61
2023/09/17 10:46:59;;;;;;;3.93;1.60;;;25.00;94.90;;;;;;5026581;28;20415;-61
2023/09/17 10:49:26;;;;;;;14.90;1.40;;;25.10;94.40;;;;;;5025091;28;20690;-60
2023/09/17 10:51:53;;;;;;;1.20;1.10;;;25.20;94.10;;;;;;5025426;28;20478;-59
2023/09/17 10:54:19;;;;;;;1.70;1.60;;;25.30;93.20;;;;;;5018586;28;21042;-59
2023/09/17 10:56:45;;;;;;;3.33;1.80;;;25.40;92.80;;;;;;5026146;28;20518;-60
2023/09/17 10:59:14;;;;;;;4.53;2.03;;;25.50;92.10;;;;;;5024945;28;20181;-59
2023/09/17 11:01:41;;;;;;;4.37;2.40;;;25.70;91.90;;;;;;5022857;28;20529;-60
2023/09/17 11:04:15;;;;;;;20.67;1.93;;;25.80;92.20;;;;;;5006609;28;20423;-60
2023/09/17 11:06:44;;;;;;;2.53;1.60;;;25.90;91.60;;;;;;5020735;28;20438;-60
2023/09/17 11:09:11;;;;;;;1.87;1.67;;;26.00;91.30;;;;;;5020743;28;20449;-59
2023/09/17 11:11:37;;;;;;;3.13;1.77;;;26.10;91.40;;;;;;5010754;28;20487;-60
2023/09/17 11:14:04;;;;;;;2.80;1.30;;;26.20;91.00;;;;;;5014870;28;20412;-60
2023/09/17 11:16:32;;;;;;;6.23;1.57;;;26.30;90.60;;;;;;5011877;28;20564;-60
2023/09/17 11:19:09;;;;;;;2.07;1.93;;;26.40;90.00;;;;;;5022923;28;20523;-60
2023/09/17 11:21:48;;;;;;;2.10;1.60;;;26.40;89.70;;;;;;5014769;28;20454;-57
2023/09/17 11:24:13;;;;;;;1.67;1.47;;;26.40;89.10;;;;;;5017433;28;20517;-57
2023/09/17 11:26:41;;;;;;;1.17;1.10;;;26.40;89.50;;;;;;5010054;28;20835;-57
2023/09/17 11:29:08;;;;;;;4.63;1.83;;;26.30;89.30;;;;;;5006886;28;20652;-57
2023/09/17 11:31:54;;;;;;;2.20;1.47;;;26.30;89.50;;;;;;5011164;28;20592;-57
2023/09/17 11:34:21;;;;;;;1.60;1.33;;;26.30;89.60;;;;;;5007235;28;20779;-57
2023/09/17 11:36:47;;;;;;;1.87;1.77;;;26.20;89.70;;;;;;5010099;28;20948;-57
2023/09/17 11:39:20;;;;;;;1.73;1.70;;;26.20;90.20;;;;;;5027990;28;21206;-57
2023/09/17 11:41:48;;;;;;;1.60;1.50;;;26.10;90.50;;;;;;5022367;28;20452;-57
2023/09/17 11:44:15;;;;;;;5.00;2.07;;;26.10;90.80;;;;;;5009752;28;20435;-57
2023/09/17 11:46:42;;;;;;;2.50;1.33;;;26.10;91.10;;;;;;5017424;28;20431;-57
2023/09/17 11:49:08;;;;;;;1.40;1.30;;;26.00;90.90;;;;;;5009683;28;20434;-57
2023/09/17 11:51:34;;;;;;;4.17;2.30;;;26.10;91.70;;;;;;5016940;28;20467;-57
2023/09/17 11:54:01;;;;;;;1.10;1.07;;;26.10;91.60;;;;;;5017225;28;20436;-57
2023/09/17 11:56:29;;;;;;;2.90;2.20;;;26.20;91.50;;;;;;5015906;28;20962;-57
2023/09/17 11:58:57;;;;;;;2.77;2.03;;;26.20;90.70;;;;;;5017282;28;20434;-58
2023/09/17 12:01:24;;;;;;;1.20;1.20;;;26.30;91.30;;;;;;5022435;28;20430;-57
2023/09/17 12:03:53;;;;;;;1.47;1.37;;;26.40;91.10;;;;;;5019027;28;20510;-57
2023/09/17 12:06:20;;;;;;;3.37;2.10;;;26.50;90.50;;;;;;5028582;28;20422;-58
2023/09/17 12:08:47;;;;;;;2.10;1.70;;;26.50;89.50;;;;;;5019712;28;20514;-58
2023/09/17 12:11:21;;;;;;;1.60;1.60;;;26.50;89.90;;;;;;5007883;28;20589;-58
2023/09/17 12:13:53;;;;;;;1.20;1.10;;;26.60;89.80;;;;;;5007798;28;20419;-57
2023/09/17 12:16:27;;;;;;;1.33;1.20;;;26.50;90.10;;;;;;5017216;28;20419;-58
2023/09/17 12:18:55;;;;;;;2.20;2.03;;;26.60;89.30;;;;;;5018810;28;20417;-58
2023/09/17 12:21:22;;;;;;;1.10;1.00;;;26.60;89.40;;;;;;5015237;28;20436;-58
2023/09/17 12:23:57;;;;;;;1.53;1.47;;;26.70;90.10;;;;;;5015055;28;20415;-57
2023/09/17 12:26:37;;;;;;;2.77;1.33;;;26.70;88.60;;;;;;5011180;28;20418;-57
2023/09/17 12:29:10;;;;;;;1.93;1.10;;;26.80;89.00;;;;;;5024538;28;20470;-57
2023/09/17 12:31:36;;;;;;;1.93;1.27;;;26.90;89.00;;;;;;5016708;28;20859;-58
2023/09/17 12:34:03;;;;;;;2.10;1.37;;;27.10;89.40;;;;;;5011576;28;20411;-57
2023/09/17 12:36:30;;;;;;;1.77;1.33;;;27.20;88.60;;;;;;5010091;28;20412;-57
2023/09/17 12:38:56;;;;;;;2.97;1.20;;;27.40;88.10;;;;;;5018168;28;20426;-58
2023/09/17 12:41:22;;;;;;;1.27;1.20;;;27.60;88.00;;;;;;5022150;28;20839;-59
2023/09/17 12:43:47;;;;;;;1.53;1.30;;;27.80;86.20;;;;;;5023424;28;20954;-64
2023/09/17 12:46:13;;;;;;;1.77;1.47;;;28.00;86.20;;;;;;5011035;28;20661;-63
2023/09/17 12:48:39;;;;;;;1.43;1.37;;;28.20;85.70;;;;;;5023892;28;20188;-63
2023/09/17 12:51:04;;;;;;;3.83;1.50;;;28.30;85.30;;;;;;5017988;28;20498;-63
2023/09/17 12:53:30;;;;;;;2.10;1.53;;;28.40;83.40;;;;;;5024960;28;20177;-63
2023/09/17 12:56:00;;;;;;;1.53;1.50;;;28.40;83.70;;;;;;5025249;28;20188;-63
2023/09/17 12:58:26;;;;;;;1.17;1.13;;;28.40;83.40;;;;;;5019778;28;20419;-63
2023/09/17 13:00:52;;;;;;;3.43;1.90;;;28.30;82.30;;;;;;5021662;28;20485;-64
2023/09/17 13:03:18;;;;;;;1.60;1.60;;;28.20;84.10;;;;;;5021331;28;20520;-63
2023/09/17 13:05:45;;;;;;;1.40;1.30;;;28.10;85.60;;;;;;5028828;28;20502;-63
2023/09/17 13:08:11;;;;;;;3.63;1.23;;;28.00;84.90;;;;;;5025836;28;20210;-63
2023/09/17 13:10:39;;;;;;;1.77;1.43;;;28.00;85.90;;;;;;5026693;28;20462;-63
2023/09/17 13:13:05;;;;;;;2.80;1.83;;;28.00;85.90;;;;;;5020276;28;20424;-63
2023/09/17 13:15:32;;;;;;;2.03;1.43;;;28.10;85.70;;;;;;5012803;28;20912;-61
2023/09/17 13:18:01;;;;;;;3.43;1.43;;;28.30;84.80;;;;;;5019375;28;20415;-61
2023/09/17 13:20:27;;;;;;;5.53;3.13;;;28.40;83.60;;;;;;5029692;28;20474;-63
2023/09/17 13:22:53;;;;;;;3.07;1.37;;;28.50;82.90;;;;;;5022063;28;20415;-64
2023/09/17 13:25:19;;;;;;;1.57;1.53;;;28.70;82.50;;;;;;5015897;28;20418;-62
2023/09/17 13:27:45;;;;;;;2.20;1.30;;;28.90;82.90;;;;;;5024322;28;20169;-63
2023/09/17 13:30:11;;;;;;;1.57;1.47;;;29.00;80.80;;;;;;5021708;28;20415;-64
2023/09/17 13:32:37;;;;;;;1.53;1.40;;;29.10;79.20;;;;;;5024722;28;20173;-64
2023/09/17 13:35:08;;;;;;;1.57;1.00;;;29.20;79.60;;;;;;5022714;28;20428;-64
2023/09/17 13:37:40;;;;;;;1.20;1.10;;;29.30;80.00;;;;;;5022716;28;20195;-62
2023/09/17 13:40:06;;;;;;;2.77;1.90;;;29.50;80.20;;;;;;5022981;28;20415;-62
2023/09/17 13:42:32;;;;;;;1.03;0.93;;;29.70;80.70;;;;;;5020358;28;20425;-62
2023/09/17 13:44:57;;;;;;;1.33;1.00;;;29.90;80.20;;;;;;5018686;28;20428;-64
2023/09/17 13:47:23;;;;;;;4.37;1.27;;;30.00;79.90;;;;;;5022530;28;20225;-62
2023/09/17 13:49:49;;;;;;;1.97;1.83;;;30.10;78.60;;;;;;5020899;28;20698;-61
2023/09/17 13:52:14;;;;;;;5.30;1.50;;;30.10;78.80;;;;;;5019070;28;20593;-63
2023/09/17 13:54:43;;;;;;;2.70;0.97;;;30.20;78.70;;;;;;5014914;28;21049;-63
2023/09/17 13:57:09;;;;;;;1.47;1.07;;;30.30;78.50;;;;;;5018856;28;20208;-64
2023/09/17 13:59:35;;;;;;;1.87;1.30;;;30.40;78.40;;;;;;5019608;28;20948;-64
2023/09/17 14:02:02;;;;;;;1.10;1.00;;;30.50;78.40;;;;;;5022905;28;20243;-64
2023/09/17 14:04:28;;;;;;;1.90;1.40;;;30.60;77.40;;;;;;5021190;28;20231;-64
2023/09/17 14:06:55;;;;;;;2.00;1.47;;;30.60;76.40;;;;;;5008917;28;20420;-64
2023/09/17 14:09:21;;;;;;;1.97;1.50;;;30.60;76.00;;;;;;5019565;28;20822;-65
2023/09/17 14:11:47;;;;;;;1.53;1.10;;;30.50;73.80;;;;;;5011369;28;20467;-64
2023/09/17 14:14:13;;;;;;;1.50;1.10;;;30.50;75.20;;;;;;5028830;28;20419;-65
2023/09/17 14:16:38;;;;;;;0.93;0.67;;;30.50;74.80;;;;;;5026789;28;20176;-65
2023/09/17 14:19:05;;;;;;;2.17;1.47;;;30.60;75.10;;;;;;5014166;28;20189;-65
2023/09/17 14:21:37;;;;;;;2.83;1.10;;;30.70;75.40;;;;;;5022512;28;20227;-65
2023/09/17 14:24:06;;;;;;;4.37;1.67;;;30.80;75.80;;;;;;5028849;28;20438;-65
2023/09/17 14:26:31;;;;;;;1.23;1.23;;;31.00;75.90;;;;;;5021641;28;20443;-65
2023/09/17 14:28:57;;;;;;;1.40;1.00;;;31.10;76.20;;;;;;5028979;28;20446;-64
2023/09/17 14:31:22;;;;;;;1.77;1.67;;;31.00;75.10;;;;;;5028547;28;20241;-65
2023/09/17 14:33:48;;;;;;;1.57;1.47;;;30.80;75.20;;;;;;5027454;28;20279;-65
2023/09/17 14:36:13;;;;;;;1.00;1.00;;;30.50;76.20;;;;;;5028462;28;20187;-66
2023/09/17 14:38:39;;;;;;;2.43;1.30;;;30.10;76.90;;;;;;5027511;28;20641;-65
2023/09/17 14:41:04;;;;;;;2.67;1.27;;;29.80;77.70;;;;;;5027483;28;20298;-64
2023/09/17 14:43:30;;;;;;;1.67;1.20;;;29.50;77.90;;;;;;5020676;28;20192;-65
2023/09/17 14:45:56;;;;;;;2.17;1.40;;;29.20;78.30;;;;;;5029864;28;20184;-65
2023/09/17 14:48:21;;;;;;;1.60;1.53;;;29.00;79.20;;;;;;5027977;28;20334;-65
2023/09/17 14:50:47;;;;;;;2.47;1.30;;;28.70;79.30;;;;;;5021492;28;20235;-64
2023/09/17 14:53:12;;;;;;;2.40;1.30;;;28.50;79.40;;;;;;5027103;28;20177;-65
2023/09/17 14:55:38;;;;;;;2.10;1.23;;;28.40;79.90;;;;;;5015763;28;20181;-64
2023/09/17 14:58:04;;;;;;;1.73;1.20;;;28.30;80.40;;;;;;5026706;28;20318;-65
2023/09/17 15:00:29;;;;;;;1.97;1.17;;;28.40;81.20;;;;;;5026225;28;21022;-64
2023/09/17 15:02:55;;;;;;;1.07;0.97;;;28.40;81.30;;;;;;5028134;28;20184;-64
2023/09/17 15:05:20;;;;;;;2.50;1.20;;;28.30;81.00;;;;;;5018095;28;20205;-64
2023/09/17 15:07:46;;;;;;;1.57;1.00;;;28.20;80.50;;;;;;5013218;28;20308;-64
2023/09/17 15:10:11;;;;;;;2.80;2.00;;;28.20;81.00;;;;;;5018258;28;20208;-65
2023/09/17 15:12:37;;;;;;;1.70;1.10;;;28.30;80.70;;;;;;5022323;28;20788;-64
2023/09/17 15:15:04;;;;;;;2.40;1.80;;;28.30;80.30;;;;;;5022171;28;20215;-64
2023/09/17 15:17:30;;;;;;;2.43;1.23;;;28.20;80.30;;;;;;5029745;28;20192;-64
2023/09/17 15:19:56;;;;;;;1.10;1.00;;;28.10;80.80;;;;;;5026062;28;20831;-65
2023/09/17 15:22:21;;;;;;;2.20;1.27;;;28.10;81.80;;;;;;5030112;28;20240;-66
2023/09/17 15:24:47;;;;;;;2.07;1.27;;;28.00;82.10;;;;;;5016800;28;20284;-64
2023/09/17 15:27:13;;;;;;;1.47;1.37;;;27.80;81.70;;;;;;5029179;28;20196;-64
2023/09/17 15:29:38;;;;;;;0.97;0.93;;;27.70;82.30;;;;;;5026458;28;20196;-64
2023/09/17 15:32:04;;;;;;;2.10;1.13;;;27.60;82.80;;;;;;5028398;28;20723;-65
2023/09/17 15:34:30;;;;;;;2.03;1.17;;;27.50;83.30;;;;;;5028747;28;20184;-64
2023/09/17 15:36:56;;;;;;;1.00;0.90;;;27.40;83.60;;;;;;5030482;28;20417;-64
2023/09/17 15:39:21;;;;;;;1.47;1.40;;;27.40;83.60;;;;;;5031837;28;20180;-64
2023/09/17 15:41:47;;;;;;;1.10;1.00;;;27.30;83.60;;;;;;5032700;28;20223;-64
2023/09/17 15:44:12;;;;;;;4.00;1.53;;;27.20;84.30;;;;;;5030966;28;21368;-64
2023/09/17 15:46:41;;;;;;;1.37;1.33;;;27.10;84.60;;;;;;5031773;28;20181;-65
2023/09/17 15:49:06;;;;;;;1.27;1.17;;;27.10;84.10;;;;;;5032725;28;20370;-65
2023/09/17 15:51:32;;;;;;;2.13;1.97;;;27.00;83.80;;;;;;5029707;28;20568;-65
2023/09/17 15:53:58;;;;;;;1.50;1.40;;;26.90;84.40;;;;;;5031467;28;20266;-65
2023/09/17 15:56:23;;;;;;;1.30;0.87;;;26.80;84.00;;;;;;5031305;28;20188;-65
2023/09/17 15:58:49;;;;;;;2.70;2.27;;;26.80;84.40;;;;;;5026346;28;20181;-66
2023/09/17 16:01:14;;;;;;;4.97;1.67;;;26.70;85.10;;;;;;5032345;28;20728;-66
2023/09/17 16:03:40;;;;;;;1.20;1.00;;;26.70;85.30;;;;;;5032735;28;20682;-66
2023/09/17 16:06:06;;;;;;;1.13;0.93;;;26.60;85.40;;;;;;5031230;28;20801;-64
2023/09/17 16:08:31;;;;;;;1.40;1.23;;;26.60;86.00;;;;;;5024138;28;20803;-64
2023/09/17 16:10:57;;;;;;;1.20;1.10;;;26.50;86.30;;;;;;5013852;28;20975;-64
2023/09/17 16:13:22;;;;;;;1.20;1.10;;;26.50;86.70;;;;;;5018788;28;20227;-66
2023/09/17 16:15:51;;;;;;;1.03;1.03;;;26.40;86.50;;;;;;5021213;28;20181;-67
2023/09/17 16:18:17;;;;;;;1.63;1.30;;;26.40;86.40;;;;;;5016296;28;20181;-67
2023/09/17 16:20:43;;;;;;;3.73;1.60;;;26.40;86.30;;;;;;5031763;28;20442;-66
2023/09/17 16:23:10;;;;;;;1.20;1.10;;;26.40;86.00;;;;;;5030060;28;20939;-65
2023/09/17 16:25:35;;;;;;;1.40;1.30;;;26.30;85.90;;;;;;5031576;28;20267;-65
2023/09/17 16:28:01;;;;;;;2.03;1.20;;;26.40;85.70;;;;;;5030654;28;20522;-64
2023/09/17 16:30:26;;;;;;;1.80;1.70;;;26.30;85.20;;;;;;5026324;28;20205;-65
2023/09/17 16:32:52;;;;;;;2.63;1.77;;;26.30;85.00;;;;;;5029900;28;20299;-65
2023/09/17 16:35:18;;;;;;;1.77;1.67;;;26.20;85.10;;;;;;5024754;28;20181;-65
2023/09/17 16:37:45;;;;;;;3.47;1.60;;;26.10;84.90;;;;;;5016505;28;20188;-65
2023/09/17 16:40:11;;;;;;;1.90;1.80;;;26.00;84.80;;;;;;5018317;28;20188;-64
2023/09/17 16:42:36;;;;;;;2.00;1.50;;;25.90;84.90;;;;;;5014929;28;20420;-64